Time;durP1;ratioP1;P1;durP2;ratioP2;P2;SDS_P1;SDS_P2;PMS_P1;PMS_P2;Temp;Humidity;BMP_temperature;BMP_pressure;BME280_temperature;BME280_humidity;BME280_pressure;Samples;Min_cycle;Max_cycle;Signal;HPM_P1;HPM_P2
2022/11/09 00:01:39;;;;;;;14.15;6.50;;;11.30;99.90;;;;;;5044067;28;20509;-67
2022/11/09 00:04:07;;;;;;;14.07;8.75;;;11.30;99.90;;;;;;5044667;28;20056;-66
2022/11/09 00:06:35;;;;;;;12.80;6.18;;;11.30;99.90;;;;;;5049412;28;20055;-66
2022/11/09 00:09:06;;;;;;;14.48;6.68;;;11.30;99.90;;;;;;5045960;28;20048;-69
2022/11/09 00:11:36;;;;;;;21.08;7.82;;;11.30;99.90;;;;;;5055502;28;20105;-67
2022/11/09 00:14:04;;;;;;;16.20;6.82;;;11.30;99.90;;;;;;5048883;28;20071;-66
2022/11/09 00:16:30;;;;;;;13.63;5.57;;;11.30;99.90;;;;;;5053830;28;20132;-66
2022/11/09 00:18:57;;;;;;;13.50;6.45;;;11.20;99.90;;;;;;5047669;28;20052;-66
2022/11/09 00:21:24;;;;;;;17.52;7.97;;;11.30;99.90;;;;;;5041469;28;20067;-66
2022/11/09 00:23:52;;;;;;;20.23;7.32;;;11.30;99.90;;;;;;5043841;28;20076;-67
2022/11/09 00:26:20;;;;;;;17.33;6.78;;;11.30;99.90;;;;;;5043188;28;20051;-67
2022/11/09 00:28:48;;;;;;;22.13;6.80;;;11.40;99.90;;;;;;5047146;28;20787;-66
2022/11/09 00:31:19;;;;;;;11.20;6.47;;;11.40;99.90;;;;;;5044199;28;20250;-67
2022/11/09 00:33:54;;;;;;;13.25;5.68;;;11.40;99.90;;;;;;5049325;28;20060;-67
2022/11/09 00:36:22;;;;;;;19.60;6.85;;;11.40;99.90;;;;;;5042554;28;20813;-66
2022/11/09 00:38:51;;;;;;;16.30;6.95;;;11.40;99.90;;;;;;5043192;28;20072;-68
2022/11/09 00:41:19;;;;;;;17.38;6.95;;;11.40;99.90;;;;;;5021750;28;20056;-66
2022/11/09 00:43:47;;;;;;;9.32;6.63;;;11.40;99.90;;;;;;5041253;28;20064;-68
2022/11/09 00:46:15;;;;;;;13.38;6.57;;;11.40;99.90;;;;;;5042099;28;20073;-68
2022/11/09 00:48:43;;;;;;;14.88;7.97;;;11.40;99.90;;;;;;5049056;28;20052;-71
2022/11/09 00:51:10;;;;;;;11.55;6.50;;;11.40;99.90;;;;;;5043332;28;20064;-69
2022/11/09 00:53:37;;;;;;;12.38;7.30;;;11.50;99.90;;;;;;5060440;28;20052;-69
2022/11/09 00:56:09;;;;;;;10.93;6.78;;;11.40;99.90;;;;;;5068907;28;20529;-67
2022/11/09 00:58:37;;;;;;;13.18;5.97;;;11.50;99.90;;;;;;5076787;28;20332;-75
2022/11/09 01:01:07;;;;;;;15.57;6.05;;;11.50;99.90;;;;;;5062062;28;20163;-67
2022/11/09 01:03:34;;;;;;;13.03;6.00;;;11.50;99.90;;;;;;5044783;28;20086;-67
2022/11/09 01:06:01;;;;;;;17.55;6.63;;;11.50;99.90;;;;;;5068720;28;20113;-75
2022/11/09 01:08:29;;;;;;;25.60;8.27;;;11.50;99.90;;;;;;5067465;28;20139;-69
2022/11/09 01:10:56;;;;;;;12.15;6.28;;;11.50;99.90;;;;;;5069318;28;20052;-67
2022/11/09 01:13:23;;;;;;;14.93;6.32;;;11.50;99.90;;;;;;5055742;28;20531;-73
2022/11/09 01:15:52;;;;;;;11.05;5.10;;;11.50;99.90;;;;;;5069640;28;20131;-68
2022/11/09 01:18:20;;;;;;;15.05;7.38;;;11.50;99.90;;;;;;5061186;28;20468;-67
2022/11/09 01:20:48;;;;;;;12.45;5.90;;;11.50;99.90;;;;;;5056873;28;20040;-69
2022/11/09 01:23:17;;;;;;;13.77;6.47;;;11.50;99.90;;;;;;5062050;28;20110;-73
2022/11/09 01:25:45;;;;;;;16.13;6.97;;;11.50;99.90;;;;;;5073025;28;20131;-68
2022/11/09 01:28:12;;;;;;;10.35;6.47;;;11.50;99.90;;;;;;5067784;28;20044;-67
2022/11/09 01:30:41;;;;;;;13.70;6.57;;;11.40;99.90;;;;;;5072616;28;20051;-68
2022/11/09 01:33:10;;;;;;;11.93;6.23;;;11.40;99.90;;;;;;5061616;28;20072;-66
2022/11/09 01:35:39;;;;;;;11.48;6.65;;;11.50;99.90;;;;;;5057918;28;20301;-65
2022/11/09 01:38:07;;;;;;;17.67;7.68;;;11.50;99.90;;;;;;5064994;28;20055;-69
2022/11/09 01:40:37;;;;;;;17.30;9.32;;;11.50;99.90;;;;;;5062720;28;20636;-65
2022/11/09 01:43:17;;;;;;;11.48;7.07;;;11.50;99.90;;;;;;5044941;28;20049;-66
2022/11/09 01:46:06;;;;;;;23.67;7.57;;;11.50;99.90;;;;;;5037624;28;20063;-66
2022/11/09 01:48:52;;;;;;;9.85;6.25;;;11.50;99.90;;;;;;5050244;28;20053;-66
2022/11/09 01:51:32;;;;;;;21.77;7.32;;;11.50;99.90;;;;;;5058404;28;20052;-68
2022/11/09 01:54:14;;;;;;;14.50;8.05;;;11.50;99.90;;;;;;5046737;28;20057;-73
2022/11/09 01:56:43;;;;;;;12.43;6.03;;;11.50;99.90;;;;;;5054443;28;20048;-68
2022/11/09 01:59:21;;;;;;;10.68;5.90;;;11.50;99.90;;;;;;5023374;28;20140;-69
2022/11/09 02:01:49;;;;;;;12.48;5.93;;;11.50;99.90;;;;;;5049246;28;20152;-69
2022/11/09 02:04:27;;;;;;;11.90;6.05;;;11.40;99.90;;;;;;5047758;28;20115;-66
2022/11/09 02:06:56;;;;;;;14.80;7.05;;;11.40;99.90;;;;;;5043708;28;20080;-66
2022/11/09 02:09:35;;;;;;;14.15;6.82;;;11.40;99.90;;;;;;5028255;28;20045;-66
2022/11/09 02:12:03;;;;;;;13.70;6.60;;;11.40;99.90;;;;;;5045937;28;20091;-67
2022/11/09 02:14:33;;;;;;;14.25;5.88;;;11.40;99.90;;;;;;5045672;28;20429;-66
2022/11/09 02:17:00;;;;;;;12.20;6.68;;;11.40;99.90;;;;;;5048201;28;20148;-66
2022/11/09 02:19:28;;;;;;;14.38;6.80;;;11.40;99.90;;;;;;5046163;28;20048;-69
2022/11/09 02:21:56;;;;;;;9.55;5.28;;;11.40;99.90;;;;;;5029746;28;20136;-66
2022/11/09 02:24:24;;;;;;;15.38;6.80;;;11.40;99.90;;;;;;5032085;28;20055;-69
2022/11/09 02:26:52;;;;;;;10.13;6.60;;;11.40;99.90;;;;;;5046243;28;20516;-66
2022/11/09 02:29:26;;;;;;;17.20;6.63;;;11.40;99.90;;;;;;5038162;28;20144;-66
2022/11/09 02:31:57;;;;;;;11.00;6.03;;;11.40;99.90;;;;;;5023659;28;20500;-68
2022/11/09 02:34:24;;;;;;;22.23;7.85;;;11.40;99.90;;;;;;5030362;28;20463;-69
2022/11/09 02:36:51;;;;;;;14.50;7.00;;;11.40;99.90;;;;;;5032238;28;20057;-66
2022/11/09 02:39:24;;;;;;;12.20;8.77;;;11.40;99.90;;;;;;5048915;28;20094;-68
2022/11/09 02:42:07;;;;;;;8.85;5.70;;;11.40;99.90;;;;;;5042440;28;20041;-65
2022/11/09 02:44:44;;;;;;;14.07;6.15;;;11.30;99.90;;;;;;5044855;28;20132;-68
2022/11/09 02:47:11;;;;;;;13.70;6.50;;;11.40;99.90;;;;;;5026909;28;20106;-70
2022/11/09 02:49:38;;;;;;;19.10;7.22;;;11.40;99.90;;;;;;5026367;28;20498;-68
2022/11/09 02:52:07;;;;;;;8.77;5.78;;;11.40;99.90;;;;;;5047902;28;20044;-67
2022/11/09 02:54:34;;;;;;;15.43;6.80;;;11.30;99.90;;;;;;5039238;28;20432;-69
2022/11/09 02:57:03;;;;;;;13.30;6.90;;;11.30;99.90;;;;;;5046961;28;20135;-66
2022/11/09 02:59:31;;;;;;;9.35;6.32;;;11.30;99.90;;;;;;5024224;28;20040;-66
2022/11/09 03:01:58;;;;;;;12.23;6.18;;;11.30;99.90;;;;;;5046898;28;20040;-69
2022/11/09 03:04:28;;;;;;;12.38;5.47;;;11.30;99.90;;;;;;5030329;28;20065;-66
2022/11/09 03:06:55;;;;;;;18.67;7.47;;;11.30;99.90;;;;;;5051311;28;20579;-71
2022/11/09 03:09:22;;;;;;;12.60;5.60;;;11.30;99.90;;;;;;5026603;28;20072;-66
2022/11/09 03:11:49;;;;;;;13.07;6.22;;;11.30;99.90;;;;;;5031546;28;20163;-66
2022/11/09 03:14:16;;;;;;;13.48;6.20;;;11.30;99.90;;;;;;5025436;28;20049;-72
2022/11/09 03:16:48;;;;;;;14.63;7.15;;;11.30;99.90;;;;;;5029909;28;20049;-65
2022/11/09 03:19:17;;;;;;;16.88;6.32;;;11.30;99.90;;;;;;5043871;28;20044;-70
2022/11/09 03:21:46;;;;;;;15.18;6.18;;;11.30;99.90;;;;;;5040729;28;20080;-67
2022/11/09 03:24:13;;;;;;;7.18;5.53;;;11.30;99.90;;;;;;5041027;28;20790;-66
2022/11/09 03:26:41;;;;;;;8.48;5.90;;;11.20;99.90;;;;;;5039140;28;20048;-67
2022/11/09 03:29:08;;;;;;;12.38;6.78;;;11.20;99.90;;;;;;5055394;28;20048;-66
2022/11/09 03:31:35;;;;;;;20.85;6.75;;;11.20;99.90;;;;;;5031411;28;20063;-66
2022/11/09 03:34:05;;;;;;;14.02;6.43;;;11.20;99.90;;;;;;5031396;28;20041;-66
2022/11/09 03:36:34;;;;;;;17.30;7.47;;;11.20;99.90;;;;;;5056450;28;20067;-66
2022/11/09 03:39:01;;;;;;;10.85;7.15;;;11.20;99.90;;;;;;5030521;28;20045;-68
2022/11/09 03:41:28;;;;;;;15.75;7.65;;;11.20;99.90;;;;;;5033625;28;20392;-67
2022/11/09 03:43:55;;;;;;;10.40;6.43;;;11.10;99.90;;;;;;5037467;28;20450;-66
2022/11/09 03:46:22;;;;;;;11.52;5.88;;;11.10;99.90;;;;;;5050261;28;20472;-67
2022/11/09 03:48:49;;;;;;;11.02;6.22;;;11.10;99.90;;;;;;5046870;28;20165;-65
2022/11/09 03:51:16;;;;;;;18.98;7.72;;;11.10;99.90;;;;;;5034525;28;20079;-69
2022/11/09 03:53:43;;;;;;;12.13;7.15;;;11.10;99.90;;;;;;5057229;28;20139;-65
2022/11/09 03:56:09;;;;;;;9.77;5.93;;;11.10;99.90;;;;;;5065405;28;20056;-68
2022/11/09 03:58:36;;;;;;;16.13;6.53;;;11.10;99.90;;;;;;5055349;28;20041;-65
2022/11/09 04:01:03;;;;;;;12.55;5.35;;;11.10;99.90;;;;;;5058906;28;20099;-67
2022/11/09 04:03:30;;;;;;;12.52;6.53;;;11.10;99.90;;;;;;5057072;28;20181;-68
2022/11/09 04:05:58;;;;;;;13.52;5.90;;;11.10;99.90;;;;;;5058990;28;20086;-68
2022/11/09 04:08:25;;;;;;;9.70;6.13;;;11.00;99.90;;;;;;5066302;28;20045;-65
2022/11/09 04:10:52;;;;;;;14.80;7.63;;;11.00;99.90;;;;;;5065457;28;20048;-66
2022/11/09 04:13:19;;;;;;;9.63;5.93;;;11.00;99.90;;;;;;5072287;28;20676;-67
2022/11/09 04:15:46;;;;;;;12.05;6.25;;;10.90;99.90;;;;;;5062851;28;20899;-69
2022/11/09 04:18:15;;;;;;;11.52;5.38;;;10.90;99.90;;;;;;5043864;28;20074;-67
2022/11/09 04:20:42;;;;;;;11.10;5.60;;;10.90;99.90;;;;;;5065773;28;20083;-66
2022/11/09 04:23:11;;;;;;;16.85;6.68;;;10.90;99.90;;;;;;5064185;28;20175;-69
2022/11/09 04:25:39;;;;;;;13.30;4.65;;;10.90;99.90;;;;;;5070524;28;20522;-68
2022/11/09 04:28:10;;;;;;;10.32;5.18;;;10.90;99.90;;;;;;5068228;28;20405;-65
2022/11/09 04:30:38;;;;;;;15.60;6.25;;;10.90;99.90;;;;;;5068545;28;20198;-68
2022/11/09 04:33:05;;;;;;;10.05;5.90;;;10.90;99.90;;;;;;5068403;28;20052;-75
2022/11/09 04:35:34;;;;;;;12.90;5.65;;;10.90;99.90;;;;;;5070749;28;20648;-66
2022/11/09 04:38:04;;;;;;;9.45;5.68;;;10.90;99.90;;;;;;5062983;28;20152;-66
2022/11/09 04:40:33;;;;;;;7.75;6.03;;;10.80;99.90;;;;;;5058713;28;20056;-66
2022/11/09 04:43:01;;;;;;;8.95;5.90;;;10.90;99.90;;;;;;5060853;28;20095;-66
2022/11/09 04:45:28;;;;;;;13.07;6.07;;;10.90;99.90;;;;;;5065510;28;20123;-67
2022/11/09 04:47:59;;;;;;;14.50;6.40;;;10.90;99.90;;;;;;5067926;28;20049;-67
2022/11/09 04:50:27;;;;;;;11.13;5.63;;;10.90;99.90;;;;;;5040684;28;20458;-67
2022/11/09 04:52:54;;;;;;;13.73;6.95;;;10.90;99.90;;;;;;5047060;28;20121;-67
2022/11/09 04:55:20;;;;;;;12.00;5.95;;;10.90;99.90;;;;;;5053206;28;20463;-67
2022/11/09 04:57:47;;;;;;;12.65;5.03;;;10.90;99.90;;;;;;5068122;28;20072;-68
2022/11/09 05:00:15;;;;;;;12.10;5.18;;;10.90;99.90;;;;;;5061684;28;20618;-69
2022/11/09 05:02:41;;;;;;;10.75;6.00;;;10.90;99.90;;;;;;5064798;28;20455;-67
2022/11/09 05:05:08;;;;;;;13.70;6.13;;;10.90;99.90;;;;;;5064227;28;20846;-71
2022/11/09 05:07:36;;;;;;;17.77;6.80;;;10.90;99.90;;;;;;5068208;28;20044;-66
2022/11/09 05:10:03;;;;;;;10.80;6.40;;;10.80;99.90;;;;;;5070304;28;20453;-66
2022/11/09 05:12:30;;;;;;;12.45;5.70;;;10.80;99.90;;;;;;5064623;28;20486;-66
2022/11/09 05:14:57;;;;;;;7.80;5.10;;;10.80;99.90;;;;;;5068379;28;20044;-69
2022/11/09 05:17:23;;;;;;;15.95;6.15;;;10.80;99.90;;;;;;5068376;28;20465;-68
2022/11/09 05:19:50;;;;;;;15.32;7.07;;;10.70;99.90;;;;;;5067149;28;20066;-66
2022/11/09 05:25:07;;;;;;;14.02;7.40;;;10.70;99.90;;;;;;5061602;28;20072;-68
2022/11/09 05:27:34;;;;;;;19.25;8.48;;;10.80;99.90;;;;;;5060088;28;20058;-68
2022/11/09 05:30:01;;;;;;;9.00;5.53;;;10.70;99.90;;;;;;5060069;28;20171;-71
2022/11/09 05:32:28;;;;;;;16.52;6.05;;;10.60;99.90;;;;;;5049022;28;20041;-66
2022/11/09 05:34:55;;;;;;;13.05;7.22;;;10.70;99.90;;;;;;5059197;28;20490;-66
2022/11/09 05:37:22;;;;;;;15.23;5.93;;;10.60;99.90;;;;;;5065364;28;20044;-66
2022/11/09 05:39:49;;;;;;;12.13;6.55;;;10.60;99.90;;;;;;5070082;28;20063;-65
2022/11/09 05:42:16;;;;;;;13.63;6.03;;;10.50;99.90;;;;;;5059599;28;20380;-70
2022/11/09 05:44:43;;;;;;;14.95;5.72;;;10.50;99.90;;;;;;5045979;28;20405;-68
2022/11/09 05:47:09;;;;;;;9.75;5.53;;;10.60;99.90;;;;;;5063797;28;20127;-67
2022/11/09 05:49:36;;;;;;;16.70;7.10;;;10.50;99.90;;;;;;5056262;28;20063;-66
2022/11/09 05:52:03;;;;;;;10.40;5.38;;;10.50;99.90;;;;;;5050244;28;20041;-66
2022/11/09 05:54:30;;;;;;;7.95;5.93;;;10.50;99.90;;;;;;5053013;28;20044;-67
2022/11/09 05:56:57;;;;;;;17.83;7.25;;;10.40;99.90;;;;;;5068727;28;20045;-66
2022/11/09 05:59:24;;;;;;;9.82;5.85;;;10.40;99.90;;;;;;5066762;28;20053;-65
2022/11/09 06:01:51;;;;;;;16.40;6.03;;;10.40;99.90;;;;;;5055436;28;20127;-70
2022/11/09 06:04:18;;;;;;;14.70;6.15;;;10.40;99.90;;;;;;5058704;28;20063;-66
2022/11/09 06:06:45;;;;;;;16.67;6.85;;;10.30;99.90;;;;;;5068031;28;20099;-66
2022/11/09 06:09:12;;;;;;;10.80;6.38;;;10.30;99.90;;;;;;5060536;28;20040;-71
2022/11/09 06:11:39;;;;;;;13.30;6.80;;;10.30;99.90;;;;;;5064821;28;20113;-67
2022/11/09 06:14:06;;;;;;;11.85;5.30;;;10.30;99.90;;;;;;5052538;28;20075;-67
2022/11/09 06:16:33;;;;;;;15.30;8.70;;;10.20;99.90;;;;;;5067646;28;20051;-66
2022/11/09 06:19:00;;;;;;;14.95;8.93;;;10.20;99.90;;;;;;5058769;28;20048;-69
2022/11/09 06:21:27;;;;;;;16.38;7.38;;;10.20;99.90;;;;;;5055175;28;20140;-66
2022/11/09 06:23:53;;;;;;;11.38;6.35;;;10.30;99.90;;;;;;5062839;28;20044;-68
2022/11/09 06:26:20;;;;;;;13.93;6.07;;;10.20;99.90;;;;;;5059255;28;20163;-66
2022/11/09 06:28:47;;;;;;;15.05;5.85;;;10.20;99.90;;;;;;5067418;28;20554;-67
2022/11/09 06:31:16;;;;;;;10.68;7.97;;;10.20;99.90;;;;;;5051861;28;20402;-67
2022/11/09 06:33:43;;;;;;;12.30;9.52;;;10.20;99.90;;;;;;5052074;28;20529;-67
2022/11/09 06:36:10;;;;;;;15.80;6.90;;;10.20;99.90;;;;;;5068035;28;20044;-66
2022/11/09 06:38:37;;;;;;;11.52;5.68;;;10.20;99.90;;;;;;5067310;28;20087;-67
2022/11/09 06:41:05;;;;;;;12.20;5.75;;;10.20;99.90;;;;;;5054444;28;20502;-68
2022/11/09 06:43:31;;;;;;;17.35;6.85;;;10.20;99.90;;;;;;5049471;28;20136;-70
2022/11/09 06:46:02;;;;;;;11.70;6.90;;;10.20;99.90;;;;;;5053108;28;20338;-66
2022/11/09 06:48:29;;;;;;;10.45;5.47;;;10.10;99.90;;;;;;5055942;28;20044;-67
2022/11/09 06:51:04;;;;;;;10.02;4.78;;;10.20;99.90;;;;;;5060535;28;20048;-69
2022/11/09 06:53:33;;;;;;;15.93;6.88;;;10.10;99.90;;;;;;5061928;28;20391;-66
2022/11/09 06:56:02;;;;;;;11.98;6.35;;;10.10;99.90;;;;;;5057728;28;20049;-66
2022/11/09 06:58:30;;;;;;;12.13;6.18;;;10.10;99.90;;;;;;5063649;28;20140;-66
2022/11/09 07:00:57;;;;;;;7.00;4.90;;;10.10;99.90;;;;;;5069728;28;20067;-69
2022/11/09 07:03:24;;;;;;;11.70;6.57;;;10.20;99.90;;;;;;5064446;28;20051;-76
2022/11/09 07:05:52;;;;;;;14.35;4.70;;;10.20;99.90;;;;;;5063994;28;20796;-69
2022/11/09 07:08:19;;;;;;;14.77;8.50;;;10.20;99.90;;;;;;5063469;28;20040;-66
2022/11/09 07:10:46;;;;;;;7.20;5.60;;;10.20;99.90;;;;;;5069959;28;20059;-71
2022/11/09 07:13:13;;;;;;;7.90;5.00;;;10.20;99.90;;;;;;5068217;28;20132;-68
2022/11/09 07:15:40;;;;;;;14.07;7.72;;;10.20;99.90;;;;;;5039707;28;20136;-66
2022/11/09 07:18:11;;;;;;;13.55;9.68;;;10.30;99.90;;;;;;5056982;28;20148;-70
2022/11/09 07:20:38;;;;;;;10.73;5.18;;;10.30;99.90;;;;;;5061354;28;20110;-66
2022/11/09 07:23:04;;;;;;;8.38;4.43;;;10.30;99.90;;;;;;5069277;28;20041;-65
2022/11/09 07:25:32;;;;;;;9.93;4.93;;;10.40;99.90;;;;;;5071444;28;20458;-72
2022/11/09 07:28:04;;;;;;;12.27;5.15;;;10.40;99.90;;;;;;5064170;28;20129;-68
2022/11/09 07:30:31;;;;;;;6.82;5.47;;;10.40;99.90;;;;;;5059494;28;20081;-68
2022/11/09 07:32:58;;;;;;;12.02;4.95;;;10.40;99.90;;;;;;5060020;28;20048;-70
2022/11/09 07:35:36;;;;;;;10.23;6.82;;;10.50;99.90;;;;;;5061397;28;20052;-66
2022/11/09 07:38:03;;;;;;;13.52;7.10;;;10.50;99.90;;;;;;5061492;28;20343;-68
2022/11/09 07:40:30;;;;;;;8.35;4.88;;;10.50;99.90;;;;;;5066305;28;20069;-66
2022/11/09 07:43:02;;;;;;;7.75;3.97;;;10.50;99.90;;;;;;5062973;28;20052;-67
2022/11/09 07:45:31;;;;;;;7.43;5.25;;;10.60;99.90;;;;;;5049223;28;20052;-76
2022/11/09 07:48:04;;;;;;;8.43;5.65;;;10.60;99.90;;;;;;5062591;28;20040;-67
2022/11/09 07:50:32;;;;;;;10.88;4.45;;;10.60;99.90;;;;;;5060985;28;20041;-68
2022/11/09 07:53:00;;;;;;;8.57;4.10;;;10.70;99.90;;;;;;5051726;28;20045;-68
2022/11/09 07:55:28;;;;;;;9.95;5.68;;;10.70;99.90;;;;;;5044055;28;20055;-67
2022/11/09 07:57:55;;;;;;;7.75;3.78;;;10.80;99.90;;;;;;5018984;28;20041;-67
2022/11/09 08:00:23;;;;;;;9.23;4.18;;;10.80;99.90;;;;;;5044702;28;20147;-67
2022/11/09 08:02:50;;;;;;;10.27;3.42;;;10.90;99.90;;;;;;5041416;28;20444;-71
2022/11/09 08:05:17;;;;;;;7.68;4.70;;;10.90;99.90;;;;;;5031186;28;20047;-69
2022/11/09 08:07:45;;;;;;;11.18;4.10;;;11.00;99.90;;;;;;5043467;28;20111;-70
2022/11/09 08:10:13;;;;;;;7.15;3.90;;;11.00;99.90;;;;;;5042210;28;20123;-69
2022/11/09 08:12:39;;;;;;;7.00;3.30;;;11.00;99.90;;;;;;5047713;28;20132;-68
2022/11/09 08:15:07;;;;;;;5.82;3.38;;;11.10;99.90;;;;;;5039241;28;20141;-66
2022/11/09 08:17:34;;;;;;;11.23;4.28;;;11.10;99.90;;;;;;5044788;28;20055;-68
2022/11/09 08:20:01;;;;;;;7.57;4.25;;;11.20;99.90;;;;;;5044954;28;20056;-69
2022/11/09 08:22:28;;;;;;;8.05;3.25;;;11.20;99.90;;;;;;5045106;28;20049;-66
2022/11/09 08:24:55;;;;;;;11.20;4.70;;;11.20;99.90;;;;;;5045359;28;20080;-70
2022/11/09 08:27:22;;;;;;;11.07;3.30;;;11.30;99.90;;;;;;5028345;28;20100;-66
2022/11/09 08:29:49;;;;;;;6.10;3.58;;;11.40;99.90;;;;;;5037184;28;20045;-68
2022/11/09 08:32:16;;;;;;;7.90;3.47;;;11.40;99.90;;;;;;5043662;28;20131;-70
2022/11/09 08:34:47;;;;;;;7.57;4.18;;;11.50;99.90;;;;;;5045372;28;20044;-67
2022/11/09 08:37:15;;;;;;;4.60;2.75;;;11.50;99.90;;;;;;5043000;28;20041;-68
2022/11/09 08:39:42;;;;;;;10.75;4.53;;;11.60;99.90;;;;;;5046994;28;20080;-66
2022/11/09 08:42:09;;;;;;;6.40;3.15;;;11.60;99.90;;;;;;5045625;28;20754;-67
2022/11/09 08:44:35;;;;;;;10.70;4.38;;;11.60;99.90;;;;;;5041579;28;20206;-66
2022/11/09 08:47:02;;;;;;;8.73;4.97;;;11.70;99.90;;;;;;5037119;28;20429;-67
2022/11/09 08:49:29;;;;;;;16.48;10.13;;;11.70;99.90;;;;;;5042576;28;20045;-67
2022/11/09 08:51:56;;;;;;;7.47;2.92;;;11.80;99.90;;;;;;5035825;28;20135;-66
2022/11/09 08:54:23;;;;;;;6.43;4.68;;;11.80;99.90;;;;;;5044948;28;20148;-67
2022/11/09 08:56:53;;;;;;;7.13;3.38;;;11.90;99.90;;;;;;5045896;28;20041;-66
2022/11/09 08:59:20;;;;;;;6.30;3.67;;;12.00;99.90;;;;;;5043700;28;20043;-67
2022/11/09 09:01:47;;;;;;;6.10;4.30;;;12.10;99.90;;;;;;5045858;28;20431;-70
2022/11/09 09:04:14;;;;;;;8.02;3.20;;;12.10;99.90;;;;;;5045845;28;20537;-67
2022/11/09 09:06:41;;;;;;;5.07;2.92;;;12.20;99.90;;;;;;5045885;28;20053;-66
2022/11/09 09:09:08;;;;;;;7.68;2.85;;;12.20;99.90;;;;;;5045719;28;20057;-71
2022/11/09 09:11:35;;;;;;;6.57;3.00;;;12.30;99.90;;;;;;5049841;28;20053;-67
2022/11/09 09:14:02;;;;;;;8.55;3.35;;;12.30;99.90;;;;;;5055945;28;20359;-67
2022/11/09 09:16:28;;;;;;;3.83;1.77;;;12.30;99.90;;;;;;5050439;28;20144;-67
2022/11/09 09:18:55;;;;;;;4.65;2.58;;;12.40;99.90;;;;;;5050362;28;20533;-69
2022/11/09 09:21:22;;;;;;;10.02;2.80;;;12.40;99.90;;;;;;5048289;28;20068;-66
2022/11/09 09:23:49;;;;;;;7.20;2.92;;;12.50;99.90;;;;;;5048871;28;20049;-68
2022/11/09 09:26:17;;;;;;;3.72;2.40;;;12.50;99.90;;;;;;5052056;28;20724;-67
2022/11/09 09:28:45;;;;;;;6.63;2.88;;;12.50;99.90;;;;;;5052558;28;20107;-71
2022/11/09 09:31:12;;;;;;;4.10;2.58;;;12.60;99.90;;;;;;5050055;28;20051;-66
2022/11/09 09:33:45;;;;;;;8.27;3.53;;;12.60;99.90;;;;;;5048504;28;20073;-72
2022/11/09 09:36:20;;;;;;;5.57;3.17;;;12.70;99.90;;;;;;5048776;28;20080;-69
2022/11/09 09:38:54;;;;;;;3.05;2.58;;;12.80;99.90;;;;;;5048798;28;20080;-70
2022/11/09 09:41:38;;;;;;;5.45;2.67;;;12.80;99.90;;;;;;5047140;28;20047;-69
2022/11/09 09:44:22;;;;;;;8.43;2.95;;;12.90;99.90;;;;;;5046882;28;20111;-68
2022/11/09 09:47:09;;;;;;;10.75;3.00;;;13.00;99.90;;;;;;5033224;28;20089;-66
2022/11/09 09:49:44;;;;;;;5.38;2.67;;;13.00;99.90;;;;;;5047506;28;20128;-67
2022/11/09 09:52:22;;;;;;;6.93;2.70;;;13.00;99.90;;;;;;5046363;28;20060;-66
2022/11/09 09:55:16;;;;;;;10.38;2.25;;;13.00;99.90;;;;;;5043039;28;20140;-78
2022/11/09 09:57:49;;;;;;;6.85;2.97;;;13.00;99.90;;;;;;5047336;28;20162;-68
2022/11/09 10:00:25;;;;;;;5.75;2.38;;;12.90;99.90;;;;;;5046997;28;20080;-72
2022/11/09 10:02:53;;;;;;;6.60;2.67;;;12.90;99.90;;;;;;5049844;28;20141;-66
2022/11/09 10:05:42;;;;;;;4.72;2.67;;;12.90;99.90;;;;;;5049669;28;20140;-71
2022/11/09 10:08:30;;;;;;;6.47;3.17;;;12.80;99.90;;;;;;5048337;28;20063;-66
2022/11/09 10:11:11;;;;;;;7.05;3.70;;;12.80;99.90;;;;;;5044818;28;20618;-67
2022/11/09 10:13:48;;;;;;;6.80;3.50;;;12.70;99.90;;;;;;5045031;28;20044;-67
2022/11/09 10:16:18;;;;;;;5.82;2.83;;;12.70;99.90;;;;;;5037267;28;20055;-74
2022/11/09 10:19:09;;;;;;;5.37;3.33;;;12.60;99.90;;;;;;5049035;28;20056;-67
2022/11/09 10:21:57;;;;;;;4.45;2.83;;;12.60;99.90;;;;;;5043537;28;20370;-66
2022/11/09 10:24:30;;;;;;;6.90;2.83;;;12.50;99.90;;;;;;5047505;28;20214;-66
2022/11/09 10:26:58;;;;;;;7.90;3.20;;;12.50;99.90;;;;;;5048892;28;20459;-69
2022/11/09 10:29:42;;;;;;;3.50;3.13;;;12.40;99.90;;;;;;5046912;28;20111;-69
2022/11/09 10:32:14;;;;;;;7.55;3.10;;;12.40;99.90;;;;;;5055358;28;20083;-66
2022/11/09 10:35:01;;;;;;;3.50;2.35;;;12.40;99.90;;;;;;5049357;28;20140;-66
2022/11/09 10:37:32;;;;;;;4.53;3.22;;;12.30;99.90;;;;;;5045788;28;20083;-69
2022/11/09 10:40:08;;;;;;;7.55;2.55;;;12.40;99.90;;;;;;5046998;28;20371;-71
2022/11/09 10:42:59;;;;;;;3.33;2.58;;;12.30;99.90;;;;;;5052102;28;20064;-67
2022/11/09 10:45:55;;;;;;;9.43;3.25;;;12.40;99.90;;;;;;5043988;28;20055;-67
2022/11/09 10:48:41;;;;;;;5.72;3.05;;;12.40;99.90;;;;;;5047836;28;20079;-66
2022/11/09 10:51:37;;;;;;;6.00;3.05;;;12.40;99.90;;;;;;5044361;28;20388;-66
2022/11/09 10:54:36;;;;;;;10.55;3.33;;;12.40;99.90;;;;;;5071132;28;20110;-66
2022/11/09 10:57:23;;;;;;;8.38;4.38;;;12.40;99.90;;;;;;5068220;28;20090;-66
2022/11/09 11:00:18;;;;;;;6.63;3.60;;;12.30;99.90;;;;;;5067071;28;20513;-67
2022/11/09 11:03:16;;;;;;;7.65;3.00;;;12.40;99.90;;;;;;5068174;28;20191;-66
2022/11/09 11:06:03;;;;;;;9.50;3.58;;;12.30;99.90;;;;;;5061064;28;20485;-66
2022/11/09 11:09:14;;;;;;;9.88;3.20;;;12.30;99.90;;;;;;5072150;28;20054;-67
2022/11/09 11:12:19;;;;;;;3.60;2.85;;;12.30;99.90;;;;;;5061627;28;20070;-76
2022/11/09 11:15:28;;;;;;;5.38;3.50;;;12.40;99.90;;;;;;5067943;28;20063;-66
2022/11/09 11:18:24;;;;;;;10.40;4.47;;;12.40;99.90;;;;;;5061285;28;20417;-68
2022/11/09 11:21:16;;;;;;;5.97;2.85;;;12.40;99.90;;;;;;5065555;28;20055;-67
2022/11/09 11:24:12;;;;;;;4.60;2.72;;;12.40;99.90;;;;;;5067042;28;20056;-66
2022/11/09 11:27:09;;;;;;;6.72;3.83;;;12.40;99.90;;;;;;5068831;28;20119;-70
2022/11/09 11:30:00;;;;;;;6.00;4.32;;;12.40;99.90;;;;;;5068582;28;20067;-67
2022/11/09 11:32:45;;;;;;;10.50;3.40;;;12.40;99.90;;;;;;5074209;28;20060;-66
2022/11/09 11:35:53;;;;;;;9.10;4.10;;;12.40;99.90;;;;;;5066225;28;20059;-66
2022/11/09 11:38:49;;;;;;;8.48;3.28;;;12.30;99.90;;;;;;5068071;28;20181;-67
2022/11/09 11:41:56;;;;;;;9.68;3.60;;;12.30;99.90;;;;;;5068825;28;20063;-67
2022/11/09 11:44:44;;;;;;;5.95;3.90;;;12.30;99.90;;;;;;5062273;28;20655;-71
2022/11/09 11:47:45;;;;;;;4.43;3.25;;;12.30;99.90;;;;;;5063382;28;20059;-66
2022/11/09 11:50:42;;;;;;;11.48;3.15;;;12.30;99.90;;;;;;5065143;28;20125;-66
2022/11/09 11:53:56;;;;;;;8.77;3.47;;;12.30;99.90;;;;;;5063364;28;20059;-65
2022/11/09 11:56:59;;;;;;;15.00;5.18;;;12.30;99.90;;;;;;5062635;28;20059;-67
2022/11/09 11:59:57;;;;;;;7.88;3.47;;;12.30;99.90;;;;;;5062523;28;20520;-66
2022/11/09 12:03:31;;;;;;;4.75;3.28;;;12.30;99.90;;;;;;5062216;28;20051;-66
2022/11/09 12:06:31;;;;;;;8.07;3.67;;;12.30;99.90;;;;;;5049042;28;20078;-69
2022/11/09 12:09:33;;;;;;;5.05;3.17;;;12.30;99.90;;;;;;5057388;28;20473;-72
2022/11/09 12:12:30;;;;;;;13.25;4.10;;;12.30;99.90;;;;;;5063623;28;20146;-67
2022/11/09 12:15:35;;;;;;;6.45;3.00;;;12.30;99.90;;;;;;5060245;28;20059;-67
2022/11/09 12:18:49;;;;;;;8.00;3.03;;;12.30;99.90;;;;;;5066583;28;20054;-65
2022/11/09 12:22:02;;;;;;;4.78;3.45;;;12.30;99.90;;;;;;5061472;28;20193;-66
2022/11/09 12:25:01;;;;;;;7.63;3.35;;;12.30;99.90;;;;;;5073922;28;20047;-68
2022/11/09 12:28:13;;;;;;;9.13;3.60;;;12.30;99.90;;;;;;5061571;28;20493;-67
2022/11/09 12:31:11;;;;;;;6.45;2.63;;;12.30;99.90;;;;;;5068684;28;20055;-67
2022/11/09 12:34:06;;;;;;;9.30;4.88;;;12.30;99.90;;;;;;5062143;28;20155;-65
2022/11/09 12:37:01;;;;;;;7.07;5.10;;;12.30;99.90;;;;;;5055782;28;20259;-65
2022/11/09 12:39:51;;;;;;;8.00;4.07;;;12.40;99.90;;;;;;5061998;28;20098;-66
2022/11/09 12:43:03;;;;;;;7.15;3.45;;;12.30;99.90;;;;;;5072095;28;20795;-66
2022/11/09 12:45:51;;;;;;;7.07;3.38;;;12.30;99.90;;;;;;5034804;28;20062;-66
2022/11/09 12:48:37;;;;;;;7.25;3.08;;;12.30;99.90;;;;;;5068726;28;20062;-66
2022/11/09 12:51:23;;;;;;;3.28;2.90;;;12.30;99.90;;;;;;5069907;28;21194;-65
2022/11/09 12:54:10;;;;;;;6.05;3.38;;;12.30;99.90;;;;;;5050427;28;20103;-65
2022/11/09 12:57:00;;;;;;;6.10;3.88;;;12.20;99.90;;;;;;5051757;28;20520;-66
2022/11/09 12:59:52;;;;;;;5.28;3.58;;;12.20;99.90;;;;;;5040536;28;20052;-66
2022/11/09 13:02:53;;;;;;;4.05;3.13;;;12.20;99.90;;;;;;5051376;28;20693;-69
2022/11/09 13:05:39;;;;;;;10.73;4.00;;;12.20;99.90;;;;;;5048750;28;20056;-67
2022/11/09 13:08:30;;;;;;;10.63;3.65;;;12.10;99.90;;;;;;5048150;28;20056;-67
2022/11/09 13:11:24;;;;;;;5.10;3.00;;;12.10;99.90;;;;;;5048072;28;20110;-68
2022/11/09 13:14:21;;;;;;;8.07;4.38;;;12.10;99.90;;;;;;5048028;28;20502;-70
2022/11/09 13:17:23;;;;;;;11.82;4.72;;;12.10;99.90;;;;;;5048610;28;20068;-65
2022/11/09 13:20:34;;;;;;;9.00;3.78;;;12.10;99.90;;;;;;5049545;28;20446;-66